Time;durP1;ratioP1;P1;durP2;ratioP2;P2;SDS_P1;SDS_P2;PMS_P1;PMS_P2;Temp;Humidity;BMP_temperature;BMP_pressure;BME280_temperature;BME280_humidity;BME280_pressure;Samples;Min_cycle;Max_cycle;Signal;HPM_P1;HPM_P2
2022/04/17 00:00:20;;;;;;;15.00;6.97;;;5.90;99.90;;;;;;5160166;27;20054;-74
2022/04/17 00:02:46;;;;;;;14.60;6.85;;;6.00;99.90;;;;;;5141934;27;20038;-74
2022/04/17 00:05:12;;;;;;;14.60;6.75;;;5.90;99.90;;;;;;5161552;27;20053;-74
2022/04/17 00:07:38;;;;;;;15.20;7.60;;;5.90;99.90;;;;;;5166702;27;20510;-74
2022/04/17 00:10:05;;;;;;;18.25;7.38;;;5.90;99.90;;;;;;5158901;27;20042;-73
2022/04/17 00:12:31;;;;;;;14.95;7.03;;;5.90;99.90;;;;;;5160704;27;20124;-73
2022/04/17 00:15:00;;;;;;;15.98;7.50;;;5.90;99.90;;;;;;5161520;27;20031;-74
2022/04/17 00:17:26;;;;;;;20.85;7.95;;;5.90;99.90;;;;;;5160175;27;20056;-76
2022/04/17 00:19:52;;;;;;;17.80;8.07;;;5.90;99.90;;;;;;5159089;27;20432;-75
2022/04/17 00:22:17;;;;;;;17.17;8.32;;;5.90;99.90;;;;;;5177545;27;20069;-75
2022/04/17 00:24:43;;;;;;;17.40;7.97;;;5.90;99.90;;;;;;5173766;27;20469;-74
2022/04/17 00:27:09;;;;;;;16.77;8.30;;;5.80;99.90;;;;;;5146965;27;20059;-76
2022/04/17 00:29:35;;;;;;;19.85;8.13;;;5.80;99.90;;;;;;5110202;27;20046;-75
2022/04/17 00:32:01;;;;;;;15.40;8.02;;;5.80;99.90;;;;;;5161510;27;20429;-75
2022/04/17 00:34:29;;;;;;;20.83;9.13;;;5.70;99.90;;;;;;5141056;27;20126;-76
2022/04/17 00:36:59;;;;;;;18.08;7.43;;;5.70;99.90;;;;;;5141165;27;20050;-75
2022/04/17 00:39:25;;;;;;;15.85;7.40;;;5.60;99.90;;;;;;5157860;27;20414;-75
2022/04/17 00:41:51;;;;;;;16.52;7.57;;;5.60;99.90;;;;;;5157280;27;20051;-75
2022/04/17 00:44:17;;;;;;;16.80;7.55;;;5.60;99.90;;;;;;5156407;27;20061;-74
2022/04/17 00:46:43;;;;;;;20.13;8.05;;;5.60;99.90;;;;;;5138303;27;20044;-76
2022/04/17 00:49:09;;;;;;;21.30;8.05;;;5.50;99.90;;;;;;5104341;27;20130;-75
2022/04/17 00:51:36;;;;;;;21.48;8.57;;;5.50;99.90;;;;;;5155872;27;20075;-75
2022/04/17 00:54:07;;;;;;;17.30;8.65;;;5.40;99.90;;;;;;5156136;27;20050;-76
2022/04/17 00:56:34;;;;;;;16.08;8.02;;;5.40;99.90;;;;;;5155254;27;20043;-78
2022/04/17 00:59:02;;;;;;;16.13;8.10;;;5.40;99.90;;;;;;5156042;27;20130;-75
2022/04/17 01:01:38;;;;;;;17.10;7.97;;;5.30;99.90;;;;;;5119955;27;20332;-75
2022/04/17 01:04:05;;;;;;;16.73;7.85;;;5.30;99.90;;;;;;5137771;27;20437;-75
2022/04/17 01:06:31;;;;;;;15.98;7.30;;;5.40;99.90;;;;;;5155336;27;20470;-75
2022/04/17 01:08:58;;;;;;;15.13;7.88;;;5.30;99.90;;;;;;5156345;27;20087;-75
2022/04/17 01:11:25;;;;;;;17.20;7.45;;;5.40;99.90;;;;;;5120294;27;20075;-75
2022/04/17 01:13:52;;;;;;;16.45;7.63;;;5.30;99.90;;;;;;5155114;27;20043;-75
2022/04/17 01:16:22;;;;;;;18.15;7.95;;;5.30;99.90;;;;;;5137479;27;20050;-74
2022/04/17 01:19:11;;;;;;;18.23;7.65;;;5.20;99.90;;;;;;5103922;27;20169;-76
2022/04/17 01:21:38;;;;;;;17.50;7.75;;;5.40;99.90;;;;;;5155106;27;20038;-75
2022/04/17 01:26:58;;;;;;;15.88;7.57;;;5.20;99.90;;;;;;5155908;27;20080;-75
2022/04/17 01:29:34;;;;;;;19.02;7.47;;;5.30;99.90;;;;;;5155363;27;20382;-76
2022/04/17 01:32:05;;;;;;;18.08;8.73;;;5.20;99.90;;;;;;5137027;27;20072;-75
2022/04/17 01:34:32;;;;;;;20.20;8.27;;;5.10;99.90;;;;;;5118845;27;20039;-74
2022/04/17 01:36:59;;;;;;;14.93;7.20;;;5.10;99.90;;;;;;5136666;27;20054;-76
2022/04/17 01:39:25;;;;;;;17.13;8.60;;;5.10;99.90;;;;;;5133054;27;20100;-74
2022/04/17 01:41:52;;;;;;;16.08;7.57;;;5.10;99.90;;;;;;5134341;27;20063;-75
2022/04/17 01:44:18;;;;;;;16.95;8.02;;;5.10;99.90;;;;;;5134027;27;20099;-75
2022/04/17 01:46:45;;;;;;;17.38;8.05;;;5.00;99.90;;;;;;5134427;27;20046;-76
2022/04/17 01:49:12;;;;;;;15.30;7.75;;;5.00;99.90;;;;;;5133855;27;20035;-75
2022/04/17 01:51:39;;;;;;;21.23;8.52;;;4.90;99.90;;;;;;5116185;27;20467;-74
2022/04/17 01:54:07;;;;;;;17.63;7.68;;;4.80;99.90;;;;;;5115746;27;20078;-74
2022/04/17 01:56:34;;;;;;;17.58;7.45;;;4.80;99.90;;;;;;5134467;27;20051;-75
2022/04/17 01:59:00;;;;;;;16.80;8.20;;;4.70;99.90;;;;;;5133101;27;20051;-74
2022/04/17 02:01:27;;;;;;;17.90;7.72;;;4.70;99.90;;;;;;5132739;28;20225;-74
2022/04/17 02:03:52;;;;;;;17.92;8.10;;;4.70;99.90;;;;;;5134367;27;20122;-75
2022/04/17 02:06:18;;;;;;;19.67;8.27;;;4.70;99.90;;;;;;5132985;28;20547;-75
2022/04/17 02:08:44;;;;;;;14.95;7.75;;;4.60;99.90;;;;;;5116044;28;20045;-76
2022/04/17 02:11:10;;;;;;;19.95;9.52;;;4.60;99.90;;;;;;5115635;28;20051;-75
2022/04/17 02:13:36;;;;;;;16.42;7.72;;;4.60;99.90;;;;;;5132604;28;20047;-74
2022/04/17 02:16:03;;;;;;;17.20;8.32;;;4.60;99.90;;;;;;5133422;27;20039;-76
2022/04/17 02:18:29;;;;;;;18.67;8.10;;;4.60;99.90;;;;;;5133684;27;20188;-76
2022/04/17 02:20:54;;;;;;;16.25;7.70;;;4.50;99.90;;;;;;5115433;28;20131;-75
2022/04/17 02:23:20;;;;;;;19.00;8.32;;;4.60;99.90;;;;;;5132085;28;20398;-75
2022/04/17 02:25:47;;;;;;;16.02;7.82;;;4.60;99.90;;;;;;5133435;28;20043;-76
2022/04/17 02:28:15;;;;;;;17.52;8.05;;;4.50;99.90;;;;;;5132811;28;20047;-75
2022/04/17 02:30:41;;;;;;;18.05;8.35;;;4.50;99.90;;;;;;5133409;28;20045;-75
2022/04/17 02:33:07;;;;;;;19.98;8.40;;;4.50;99.90;;;;;;5115350;28;20051;-74
2022/04/17 02:35:32;;;;;;;21.00;9.20;;;4.50;99.90;;;;;;5137276;27;20035;-75
2022/04/17 02:37:58;;;;;;;19.55;8.77;;;4.40;99.90;;;;;;5136608;27;20069;-74
2022/04/17 02:40:24;;;;;;;22.30;9.35;;;4.40;99.90;;;;;;5136186;27;20054;-75
2022/04/17 02:42:53;;;;;;;21.13;8.90;;;4.40;99.90;;;;;;5136283;27;20134;-75
2022/04/17 02:45:19;;;;;;;17.38;8.10;;;4.40;99.90;;;;;;5136578;27;20047;-75
2022/04/17 02:47:50;;;;;;;18.48;8.63;;;4.30;99.90;;;;;;5135986;27;20075;-75
2022/04/17 02:50:18;;;;;;;20.02;9.43;;;4.30;99.90;;;;;;5136073;27;20084;-75
2022/04/17 02:52:45;;;;;;;22.67;8.73;;;4.30;99.90;;;;;;5119960;27;20386;-75
2022/04/17 02:55:11;;;;;;;17.65;9.05;;;4.20;99.90;;;;;;5138833;27;20043;-74
2022/04/17 02:57:38;;;;;;;20.00;8.50;;;4.30;99.90;;;;;;5141086;27;20051;-74
2022/04/17 03:00:06;;;;;;;19.92;8.95;;;4.30;99.90;;;;;;5139414;27;20127;-75
2022/04/17 03:07:59;;;;;;;17.23;8.25;;;4.30;99.90;;;;;;5136643;27;20051;-75
2022/04/17 03:10:26;;;;;;;20.08;9.30;;;4.30;99.90;;;;;;5138305;27;20050;-75
2022/04/17 03:12:52;;;;;;;16.83;8.75;;;4.30;99.90;;;;;;5140248;27;20053;-77
2022/04/17 03:15:18;;;;;;;18.47;9.17;;;4.20;99.90;;;;;;5138069;27;20125;-75
2022/04/17 03:17:44;;;;;;;18.83;9.52;;;4.20;99.90;;;;;;5137588;27;20043;-76
2022/04/17 03:20:10;;;;;;;20.67;9.50;;;4.20;99.90;;;;;;5119858;27;20391;-75
2022/04/17 03:22:43;;;;;;;16.35;8.65;;;4.20;99.90;;;;;;5137408;27;20044;-75
2022/04/17 03:25:09;;;;;;;22.15;9.50;;;4.10;99.90;;;;;;5138386;27;20436;-75
2022/04/17 03:27:35;;;;;;;20.67;9.95;;;4.10;99.90;;;;;;5139754;27;20395;-75
2022/04/17 03:30:02;;;;;;;24.15;9.13;;;4.10;99.90;;;;;;5122274;27;20378;-74
2022/04/17 03:32:28;;;;;;;20.23;9.38;;;4.00;99.90;;;;;;5138562;27;20558;-75
2022/04/17 03:34:54;;;;;;;22.10;9.43;;;4.00;99.90;;;;;;5138351;27;20067;-76
2022/04/17 03:37:19;;;;;;;21.38;10.00;;;4.10;99.90;;;;;;5119618;27;20053;-75
2022/04/17 03:39:46;;;;;;;19.85;9.18;;;4.00;99.90;;;;;;5136466;27;20485;-75
2022/04/17 03:42:12;;;;;;;21.85;9.15;;;3.90;99.90;;;;;;5137064;27;20057;-75
2022/04/17 03:44:38;;;;;;;19.33;9.57;;;3.90;99.90;;;;;;5136854;27;20043;-75
2022/04/17 03:47:06;;;;;;;18.90;9.32;;;4.00;99.90;;;;;;5102596;27;20055;-75
2022/04/17 03:49:32;;;;;;;19.02;8.73;;;3.90;99.90;;;;;;5136988;27;20047;-75
2022/04/17 03:52:00;;;;;;;19.35;9.05;;;3.80;99.90;;;;;;5136316;27;20363;-74
2022/04/17 03:54:26;;;;;;;20.33;9.63;;;3.90;99.90;;;;;;5136948;27;20367;-74
2022/04/17 03:56:52;;;;;;;21.70;9.70;;;3.80;99.90;;;;;;5118709;27;20136;-74
2022/04/17 03:59:18;;;;;;;23.60;10.40;;;3.80;99.90;;;;;;5136106;27;20043;-74
2022/04/17 04:01:46;;;;;;;20.48;9.65;;;3.80;99.90;;;;;;5135793;27;20043;-75
2022/04/17 04:04:12;;;;;;;;;;;3.70;99.90;;;;;;5137745;27;20126;-74
2022/04/17 04:06:37;;;;;;;22.00;10.57;;;3.70;99.90;;;;;;5136646;27;19919;-74
2022/04/17 04:09:03;;;;;;;23.25;10.15;;;3.70;99.90;;;;;;5135199;27;20118;-75
2022/04/17 04:11:29;;;;;;;16.88;8.63;;;3.70;99.90;;;;;;5135555;27;20047;-76
2022/04/17 04:13:55;;;;;;;19.52;10.02;;;3.70;99.90;;;;;;5136882;27;20043;-75
2022/04/17 04:16:21;;;;;;;20.27;9.55;;;3.70;99.90;;;;;;5137344;27;20058;-75
2022/04/17 04:18:47;;;;;;;19.02;9.10;;;3.60;99.90;;;;;;5118524;27;20059;-75
2022/04/17 04:21:12;;;;;;;25.80;10.10;;;3.60;99.90;;;;;;5137067;27;20110;-75
2022/04/17 04:23:40;;;;;;;20.77;10.30;;;3.50;99.90;;;;;;5136433;27;20126;-75
2022/04/17 04:26:06;;;;;;;19.20;9.45;;;3.40;99.90;;;;;;5101892;27;20047;-75
2022/04/17 04:28:38;;;;;;;22.15;10.45;;;3.40;99.90;;;;;;5117926;27;20180;-74
2022/04/17 04:31:10;;;;;;;22.45;10.55;;;3.40;99.90;;;;;;5119634;27;20053;-75
2022/04/17 04:33:38;;;;;;;19.88;10.52;;;3.50;99.90;;;;;;5135376;27;20043;-75
2022/04/17 04:36:05;;;;;;;22.98;10.50;;;3.30;99.90;;;;;;5135188;27;20043;-75
2022/04/17 04:38:31;;;;;;;;;;;3.40;99.90;;;;;;5141847;27;20114;-75
2022/04/17 04:40:59;;;;;;;23.67;10.18;;;3.30;99.90;;;;;;5158569;27;20235;-75
2022/04/17 04:43:25;;;;;;;;;;;3.30;99.90;;;;;;5123120;27;20050;-75
2022/04/17 04:51:19;;;;;;;21.45;10.25;;;3.30;99.90;;;;;;5156757;27;20043;-76
2022/04/17 04:53:45;;;;;;;20.77;10.32;;;3.30;99.90;;;;;;5156577;27;20121;-75
2022/04/17 04:56:13;;;;;;;18.33;9.88;;;3.30;99.90;;;;;;5156714;27;20437;-76
2022/04/17 04:58:38;;;;;;;19.98;9.95;;;3.30;99.90;;;;;;5120845;27;20414;-74
2022/04/17 05:01:04;;;;;;;22.67;10.93;;;3.40;99.90;;;;;;5137263;27;20118;-75
2022/04/17 05:03:30;;;;;;;21.45;10.95;;;3.60;99.90;;;;;;5136996;27;20046;-75
2022/04/17 05:05:56;;;;;;;23.45;10.25;;;3.60;99.90;;;;;;5156351;27;20095;-75
2022/04/17 05:08:22;;;;;;;20.63;10.18;;;3.70;99.90;;;;;;5137218;27;20370;-75
2022/04/17 05:10:48;;;;;;;17.95;9.52;;;3.70;99.90;;;;;;5155622;27;20132;-75
2022/04/17 05:13:14;;;;;;;22.10;10.65;;;3.80;99.90;;;;;;5137300;27;20079;-74
2022/04/17 05:15:40;;;;;;;21.13;10.68;;;3.90;99.90;;;;;;5120687;27;20398;-75
2022/04/17 05:18:06;;;;;;;25.00;10.77;;;4.00;99.90;;;;;;5121931;27;20052;-75
2022/04/17 05:20:33;;;;;;;21.33;10.77;;;4.10;99.90;;;;;;5138580;27;20134;-75
2022/04/17 05:23:22;;;;;;;21.90;10.80;;;4.20;99.90;;;;;;5155485;27;20050;-74
2022/04/17 05:25:51;;;;;;;21.35;10.38;;;4.30;99.90;;;;;;5122109;27;20045;-75
2022/04/17 05:28:17;;;;;;;21.50;11.38;;;4.50;99.90;;;;;;5155185;27;20051;-75
2022/04/17 05:30:44;;;;;;;20.17;10.70;;;4.50;99.90;;;;;;5136471;27;20099;-75
2022/04/17 05:33:10;;;;;;;20.85;10.15;;;4.70;99.90;;;;;;5155080;27;20061;-75
2022/04/17 05:35:37;;;;;;;22.25;10.52;;;4.70;99.90;;;;;;5119927;27;20489;-75
2022/04/17 05:38:03;;;;;;;20.87;10.83;;;4.80;99.90;;;;;;5154445;27;20502;-75
2022/04/17 05:40:43;;;;;;;22.17;10.77;;;5.00;99.90;;;;;;5155726;27;20441;-74
2022/04/17 05:43:10;;;;;;;21.80;10.55;;;5.10;99.90;;;;;;5154768;27;20061;-74
2022/04/17 05:45:37;;;;;;;22.02;10.77;;;5.30;99.90;;;;;;5136325;27;20126;-76
2022/04/17 05:48:04;;;;;;;;;;;5.40;99.90;;;;;;5119562;27;20494;-74
2022/04/17 05:50:33;;;;;;;22.05;10.95;;;5.40;99.90;;;;;;5137315;27;20314;-75
2022/04/17 05:52:59;;;;;;;22.70;10.75;;;5.50;99.90;;;;;;5154972;27;20042;-75
2022/04/17 05:55:27;;;;;;;21.00;10.83;;;5.60;99.90;;;;;;5155408;27;20367;-75
2022/04/17 05:57:52;;;;;;;19.92;9.88;;;5.60;99.90;;;;;;5136856;27;20272;-74
2022/04/17 06:00:18;;;;;;;24.35;11.07;;;5.70;99.90;;;;;;5119685;27;20387;-74
2022/04/17 06:02:46;;;;;;;25.10;10.43;;;5.80;99.90;;;;;;5154686;27;20153;-75
2022/04/17 06:05:13;;;;;;;20.48;10.50;;;5.90;99.90;;;;;;5118621;27;20039;-74
2022/04/17 06:07:39;;;;;;;23.20;10.90;;;6.00;99.90;;;;;;5120741;27;20103;-74
2022/04/17 06:10:10;;;;;;;21.55;10.85;;;6.20;99.90;;;;;;5140461;27;20129;-74
2022/04/17 06:12:37;;;;;;;20.17;10.48;;;6.20;99.90;;;;;;5158233;27;20042;-75
2022/04/17 06:15:05;;;;;;;23.73;12.50;;;6.30;99.90;;;;;;5140639;27;20043;-75
2022/04/17 06:17:42;;;;;;;29.15;15.30;;;6.20;99.90;;;;;;5123923;27;20049;-74
2022/04/17 06:20:14;;;;;;;35.03;21.70;;;6.40;99.90;;;;;;5158542;27;20096;-74
2022/04/17 06:22:41;;;;;;;38.97;23.02;;;6.40;99.90;;;;;;5158782;27;20047;-74
2022/04/17 06:25:09;;;;;;;22.23;12.70;;;6.40;99.90;;;;;;5159691;27;20042;-73
2022/04/17 06:27:46;;;;;;;20.77;10.98;;;6.50;99.90;;;;;;5140367;27;20144;-75
2022/04/17 06:30:14;;;;;;;22.83;12.57;;;6.60;99.90;;;;;;5140231;27;20082;-73
2022/04/17 06:32:40;;;;;;;24.42;12.30;;;6.60;99.90;;;;;;5140051;27;20042;-73
2022/04/17 06:35:09;;;;;;;23.17;11.20;;;6.60;99.90;;;;;;5140409;27;20054;-74
2022/04/17 06:37:54;;;;;;;21.83;10.30;;;6.70;99.90;;;;;;5140835;27;20047;-73
2022/04/17 06:40:22;;;;;;;21.58;10.07;;;6.80;99.90;;;;;;5159171;27;20086;-74
2022/04/17 06:42:48;;;;;;;23.92;10.63;;;6.80;99.90;;;;;;5159078;27;20356;-75
2022/04/17 06:45:15;;;;;;;24.35;10.93;;;6.90;99.90;;;;;;5139751;27;20050;-73
2022/04/17 06:47:41;;;;;;;20.25;10.10;;;7.00;99.90;;;;;;5158560;27;20042;-74
2022/04/17 06:50:07;;;;;;;20.10;9.73;;;7.10;99.90;;;;;;5139878;27;20039;-74
2022/04/17 06:52:33;;;;;;;18.40;8.73;;;7.20;99.90;;;;;;5139410;27;20042;-73
2022/04/17 06:54:59;;;;;;;19.48;10.30;;;7.50;99.90;;;;;;5140244;27;20047;-75
2022/04/17 06:57:29;;;;;;;21.90;8.77;;;7.50;99.90;;;;;;5139736;27;20069;-74
2022/04/17 06:59:55;;;;;;;18.45;8.70;;;7.60;99.90;;;;;;5140583;27;20081;-74
2022/04/17 07:02:21;;;;;;;21.80;9.55;;;7.80;99.90;;;;;;5139117;27;20446;-73
2022/04/17 07:04:46;;;;;;;21.58;12.25;;;7.90;99.90;;;;;;5157943;27;20091;-74
2022/04/17 07:07:12;;;;;;;26.30;11.32;;;8.00;99.90;;;;;;5122839;27;20074;-74
2022/04/17 07:09:38;;;;;;;23.88;13.55;;;8.10;99.90;;;;;;5140300;27;20054;-74
2022/04/17 07:12:04;;;;;;;17.90;9.50;;;8.10;99.90;;;;;;5157742;27;20035;-74
2022/04/17 07:14:30;;;;;;;20.17;9.32;;;8.30;99.90;;;;;;5158112;27;20114;-74
2022/04/17 07:16:55;;;;;;;20.38;9.00;;;8.30;99.90;;;;;;5139107;27;20148;-74
2022/04/17 07:19:21;;;;;;;16.40;8.50;;;8.40;99.90;;;;;;5121230;27;20129;-74
2022/04/17 07:21:47;;;;;;;16.23;8.50;;;8.50;99.90;;;;;;5121472;27;20093;-74
2022/04/17 07:24:12;;;;;;;14.82;7.20;;;8.70;99.90;;;;;;5138002;27;20039;-74
2022/04/17 07:26:38;;;;;;;16.17;8.15;;;8.80;99.90;;;;;;5157236;27;20073;-75
2022/04/17 07:29:04;;;;;;;15.85;7.93;;;8.90;99.90;;;;;;5156760;27;20050;-73
2022/04/17 07:31:30;;;;;;;19.00;8.52;;;8.90;99.90;;;;;;5138271;27;20084;-74
2022/04/17 07:33:58;;;;;;;17.65;8.82;;;9.10;99.90;;;;;;5156841;27;20039;-74
2022/04/17 07:36:24;;;;;;;15.82;7.35;;;9.20;99.90;;;;;;5139170;27;20043;-75
2022/04/17 07:38:49;;;;;;;16.10;7.72;;;9.30;99.90;;;;;;5123476;27;20059;-75
2022/04/17 07:41:15;;;;;;;16.33;7.45;;;9.40;99.90;;;;;;5139474;27;20046;-74
2022/04/17 07:43:41;;;;;;;15.07;7.22;;;9.40;99.90;;;;;;5138031;27;20043;-73
2022/04/17 07:46:07;;;;;;;15.13;6.80;;;9.50;99.90;;;;;;5138308;27;20043;-73
2022/04/17 07:48:32;;;;;;;17.42;8.00;;;9.60;99.90;;;;;;5157347;27;20070;-73
2022/04/17 07:50:58;;;;;;;16.85;6.88;;;9.70;99.90;;;;;;5156671;27;20091;-72
2022/04/17 07:53:24;;;;;;;17.13;7.95;;;9.70;99.90;;;;;;5138548;27;20098;-74
2022/04/17 07:55:50;;;;;;;18.48;8.48;;;9.80;99.90;;;;;;5157674;27;20129;-74
2022/04/17 07:58:25;;;;;;;17.00;7.50;;;9.90;99.90;;;;;;5139124;27;20053;-74
2022/04/17 08:01:39;;;;;;;14.40;6.60;;;9.90;99.90;;;;;;5139703;27;20054;-74
2022/04/17 08:06:09;;;;;;;13.55;6.53;;;10.10;99.50;;;;;;5121173;27;20092;-73
2022/04/17 08:08:35;;;;;;;;;;;10.20;98.70;;;;;;5138479;27;20106;-73
2022/04/17 08:11:02;;;;;;;14.60;6.88;;;10.30;96.30;;;;;;5157468;27;19925;-73
2022/04/17 08:13:28;;;;;;;13.93;6.55;;;10.40;97.20;;;;;;5104218;27;20046;-73
2022/04/17 08:15:53;;;;;;;16.10;7.18;;;10.50;97.00;;;;;;5138033;27;20041;-74
2022/04/17 08:18:19;;;;;;;13.65;6.30;;;10.60;95.70;;;;;;5120851;27;20131;-74
2022/04/17 08:20:45;;;;;;;18.27;7.60;;;10.60;95.40;;;;;;5120849;27;20046;-74
2022/04/17 08:23:11;;;;;;;13.95;7.28;;;10.60;96.10;;;;;;5104023;27;20047;-72
2022/04/17 08:25:38;;;;;;;15.18;7.90;;;10.70;95.00;;;;;;5120726;27;20449;-74
2022/04/17 08:28:04;;;;;;;;;;;10.80;94.10;;;;;;5160418;27;20050;-72
2022/04/17 08:30:32;;;;;;;19.10;7.47;;;10.80;94.50;;;;;;5131091;27;19923;-74
2022/04/17 08:32:59;;;;;;;13.82;7.30;;;10.80;94.90;;;;;;5148189;27;20046;-72
2022/04/17 08:35:24;;;;;;;15.63;7.95;;;10.80;95.70;;;;;;5148206;27;20039;-74
2022/04/17 08:37:51;;;;;;;16.25;7.20;;;10.90;95.80;;;;;;5166312;27;20122;-71
2022/04/17 08:40:17;;;;;;;15.05;7.60;;;11.10;95.20;;;;;;5143940;27;20068;-73
2022/04/17 08:42:44;;;;;;;13.98;6.88;;;11.20;95.40;;;;;;5144222;27;20086;-74
2022/04/17 08:45:11;;;;;;;15.38;7.65;;;11.20;95.20;;;;;;5139992;27;20061;-73
2022/04/17 08:47:39;;;;;;;17.85;8.95;;;11.30;94.60;;;;;;5143112;27;20039;-74
2022/04/17 08:50:09;;;;;;;;;;;11.30;94.80;;;;;;5110815;27;20039;-73
2022/04/17 08:52:35;;;;;;;14.93;6.80;;;11.40;95.10;;;;;;5142163;27;20072;-72
2022/04/17 08:55:01;;;;;;;15.00;7.45;;;11.50;94.50;;;;;;5137833;27;20054;-75
2022/04/17 08:57:27;;;;;;;16.75;8.00;;;11.50;93.90;;;;;;5137280;27;20083;-74
2022/04/17 08:59:53;;;;;;;13.25;8.02;;;11.50;94.70;;;;;;5137400;27;20136;-74
2022/04/17 09:02:19;;;;;;;10.77;6.20;;;11.60;94.90;;;;;;5119505;27;20043;-75
2022/04/17 09:04:46;;;;;;;13.07;6.35;;;11.70;95.00;;;;;;5137400;27;20050;-74
2022/04/17 09:07:12;;;;;;;11.60;5.80;;;11.70;94.80;;;;;;5137467;27;20112;-73
2022/04/17 09:09:39;;;;;;;11.23;5.43;;;11.80;94.20;;;;;;5120914;27;20099;-73
2022/04/17 09:12:05;;;;;;;10.17;5.13;;;11.90;93.00;;;;;;5107095;27;20110;-75
2022/04/17 09:14:39;;;;;;;13.10;5.60;;;12.10;90.70;;;;;;5138712;27;20389;-74
2022/04/17 09:17:10;;;;;;;11.20;4.90;;;12.10;91.40;;;;;;5141563;27;20053;-75
2022/04/17 09:19:35;;;;;;;14.05;5.82;;;12.10;85.00;;;;;;5140742;27;20058;-76
2022/04/17 09:22:02;;;;;;;8.48;4.97;;;12.30;84.10;;;;;;5105693;27;20406;-75
2022/04/17 09:24:29;;;;;;;10.43;4.25;;;12.40;85.00;;;;;;5126046;27;20042;-72
2022/04/17 09:26:57;;;;;;;9.48;4.60;;;12.50;83.40;;;;;;5146326;27;20039;-71
2022/04/17 09:29:26;;;;;;;10.27;5.25;;;12.60;82.30;;;;;;5144305;27;20047;-73
2022/04/17 09:32:03;;;;;;;10.05;4.80;;;12.50;84.10;;;;;;5145962;27;20089;-74
2022/04/17 09:34:41;;;;;;;11.27;5.00;;;12.50;81.00;;;;;;5124156;27;20051;-74
2022/04/17 09:37:15;;;;;;;10.50;4.85;;;12.50;83.90;;;;;;5126559;27;20050;-72
2022/04/17 09:39:41;;;;;;;10.15;5.10;;;12.60;83.10;;;;;;5142637;27;20055;-73
2022/04/17 09:42:07;;;;;;;11.43;4.50;;;12.60;81.60;;;;;;5144120;27;20072;-73
2022/04/17 09:44:46;;;;;;;13.77;4.82;;;12.60;80.80;;;;;;5128411;27;20050;-72
2022/04/17 09:47:16;;;;;;;10.43;4.95;;;12.60;81.20;;;;;;5146101;27;20126;-72
2022/04/17 09:50:03;;;;;;;10.85;4.70;;;12.70;81.70;;;;;;5130403;28;20039;-73
2022/04/17 09:52:31;;;;;;;9.38;4.78;;;12.70;80.70;;;;;;5145309;27;20070;-75
2022/04/17 09:55:02;;;;;;;11.23;5.22;;;12.80;77.10;;;;;;5144789;27;20058;-74
2022/04/17 09:57:30;;;;;;;11.48;5.10;;;12.80;74.10;;;;;;5142862;27;20061;-74
2022/04/17 10:00:04;;;;;;;10.15;4.35;;;13.00;79.70;;;;;;5144285;27;20107;-76
2022/04/17 10:02:31;;;;;;;10.43;5.15;;;13.10;78.90;;;;;;5147313;27;20051;-76
2022/04/17 10:04:57;;;;;;;9.93;5.60;;;13.10;75.70;;;;;;5145628;28;20039;-76
2022/04/17 10:07:24;;;;;;;11.38;5.40;;;13.20;76.10;;;;;;5145836;27;20083;-75
2022/04/17 10:09:50;;;;;;;11.05;4.80;;;13.20;76.20;;;;;;5145242;27;20055;-73
2022/04/17 10:12:19;;;;;;;9.88;5.05;;;13.30;78.10;;;;;;5125823;28;20043;-73
2022/04/17 10:14:50;;;;;;;12.18;5.88;;;13.40;76.20;;;;;;5109742;28;20128;-75
2022/04/17 10:17:22;;;;;;;12.13;5.85;;;13.30;77.10;;;;;;5142546;28;20078;-76
2022/04/17 10:19:49;;;;;;;10.77;5.97;;;13.20;76.80;;;;;;5142439;28;20051;-76
2022/04/17 10:22:20;;;;;;;14.30;6.03;;;13.20;74.90;;;;;;5142010;28;20051;-75
2022/04/17 10:24:56;;;;;;;15.57;6.05;;;13.40;77.70;;;;;;5125150;28;20414;-75
2022/04/17 10:27:35;;;;;;;9.68;5.68;;;13.40;72.00;;;;;;5142636;28;20051;-75
2022/04/17 10:30:20;;;;;;;12.02;5.40;;;13.60;75.70;;;;;;5143082;27;20047;-75
2022/04/17 10:33:10;;;;;;;11.32;5.68;;;13.70;73.80;;;;;;5125286;28;20104;-75
2022/04/17 10:35:58;;;;;;;11.10;5.25;;;13.80;74.70;;;;;;5144160;28;20035;-75
2022/04/17 10:38:28;;;;;;;11.05;5.50;;;13.90;72.40;;;;;;5125252;28;20478;-75
2022/04/17 10:41:03;;;;;;;12.05;5.82;;;14.00;73.30;;;;;;5142110;28;20047;-75
2022/04/17 10:43:34;;;;;;;10.10;5.53;;;14.10;75.50;;;;;;5142085;27;20076;-75
2022/04/17 10:46:11;;;;;;;12.27;5.80;;;14.20;76.60;;;;;;5137966;28;20059;-76
2022/04/17 10:48:46;;;;;;;12.05;6.00;;;14.10;71.80;;;;;;5132717;28;20103;-75
2022/04/17 10:51:34;;;;;;;12.02;5.40;;;14.10;75.60;;;;;;5134293;27;20049;-74
2022/04/17 10:54:11;;;;;;;13.43;5.55;;;14.10;75.20;;;;;;5133940;27;20046;-76
2022/04/17 10:56:38;;;;;;;9.75;4.97;;;14.20;71.50;;;;;;5120204;27;20059;-73
2022/04/17 10:59:15;;;;;;;9.98;4.90;;;14.30;74.10;;;;;;5137313;27;20104;-75
2022/04/17 11:01:41;;;;;;;8.70;5.15;;;14.40;74.70;;;;;;5119498;27;20051;-75
2022/04/17 11:04:18;;;;;;;11.55;4.55;;;14.50;75.30;;;;;;5137860;27;20039;-74
2022/04/17 11:06:45;;;;;;;11.65;5.30;;;14.60;72.40;;;;;;5120288;27;20047;-75
2022/04/17 11:09:20;;;;;;;9.27;5.18;;;14.50;74.50;;;;;;5136765;27;20510;-73
2022/04/17 11:11:47;;;;;;;11.80;4.88;;;14.60;72.70;;;;;;5119909;27;20556;-73
2022/04/17 11:14:21;;;;;;;10.48;4.05;;;14.70;68.80;;;;;;5138204;27;20043;-73
2022/04/17 11:16:51;;;;;;;11.07;4.97;;;14.80;69.30;;;;;;5121167;27;20079;-76
2022/04/17 11:19:20;;;;;;;10.15;4.50;;;14.80;70.10;;;;;;5145616;27;20050;-74
2022/04/17 11:21:50;;;;;;;8.15;3.72;;;14.80;68.30;;;;;;5144897;27;20447;-73
2022/04/17 11:24:16;;;;;;;10.45;5.75;;;14.90;65.00;;;;;;5139477;27;20043;-77
2022/04/17 11:26:54;;;;;;;10.85;4.68;;;14.90;66.00;;;;;;5106912;27;20070;-73
2022/04/17 11:29:39;;;;;;;12.00;4.85;;;14.90;64.90;;;;;;5123859;27;20108;-75
2022/04/17 11:32:31;;;;;;;12.60;5.32;;;14.90;63.60;;;;;;5139612;27;20138;-75
2022/04/17 11:35:02;;;;;;;8.63;4.63;;;15.00;63.40;;;;;;5131270;27;20062;-73
2022/04/17 11:37:29;;;;;;;10.77;5.18;;;15.00;65.20;;;;;;5143795;27;20043;-74
2022/04/17 11:39:57;;;;;;;;;;;15.00;65.90;;;;;;5142385;27;20115;-72
2022/04/17 11:42:27;;;;;;;9.77;4.13;;;15.00;66.20;;;;;;5140275;27;19920;-75
2022/04/17 11:44:53;;;;;;;8.93;3.97;;;15.00;65.90;;;;;;5123078;27;20066;-75
2022/04/17 11:47:22;;;;;;;7.87;3.80;;;15.10;65.20;;;;;;5138352;27;20055;-75
2022/04/17 11:49:48;;;;;;;10.35;3.60;;;15.20;62.60;;;;;;5138034;27;20150;-75
2022/04/17 11:52:16;;;;;;;8.88;4.35;;;15.20;62.00;;;;;;5121238;27;20340;-75
2022/04/17 11:54:43;;;;;;;6.72;3.38;;;15.30;62.20;;;;;;5109754;27;20047;-74
2022/04/17 11:57:10;;;;;;;7.63;3.78;;;15.30;61.90;;;;;;5126203;27;20043;-76
2022/04/17 11:59:50;;;;;;;7.95;3.58;;;15.50;61.60;;;;;;5122238;27;20047;-77
2022/04/17 12:02:20;;;;;;;6.03;3.13;;;15.40;60.80;;;;;;5141476;27;20039;-75
2022/04/17 12:04:51;;;;;;;7.72;3.78;;;15.50;58.80;;;;;;5141629;27;20080;-74
2022/04/17 12:07:24;;;;;;;10.48;3.72;;;15.60;57.10;;;;;;5126445;27;20055;-75
2022/04/17 12:10:02;;;;;;;9.15;3.90;;;15.50;59.20;;;;;;5143833;27;20047;-73
2022/04/17 12:12:34;;;;;;;8.05;3.65;;;15.60;59.30;;;;;;5125754;27;20039;-75
2022/04/17 12:15:03;;;;;;;10.68;3.78;;;15.60;58.50;;;;;;5123747;27;20051;-74
2022/04/17 12:17:33;;;;;;;8.98;4.00;;;15.60;58.30;;;;;;5141240;27;20051;-75
2022/04/17 12:20:00;;;;;;;7.68;3.95;;;15.70;58.10;;;;;;5139950;27;20064;-74
2022/04/17 12:22:27;;;;;;;7.95;3.25;;;15.60;58.50;;;;;;5137066;27;20193;-74
2022/04/17 12:24:53;;;;;;;7.57;3.75;;;15.80;56.70;;;;;;5121439;27;20047;-73
2022/04/17 12:27:21;;;;;;;12.25;4.07;;;15.80;56.40;;;;;;5137973;27;20495;-74
2022/04/17 12:29:59;;;;;;;9.15;4.07;;;15.90;60.50;;;;;;5139284;27;20108;-72
2022/04/17 12:32:29;;;;;;;10.15;3.75;;;15.90;59.80;;;;;;5120613;27;20138;-73
2022/04/17 12:34:58;;;;;;;12.60;4.30;;;15.80;55.40;;;;;;5119952;27;20134;-73
2022/04/17 12:37:28;;;;;;;7.32;3.63;;;15.80;59.00;;;;;;5137589;27;20465;-73
2022/04/17 12:40:12;;;;;;;8.00;3.63;;;15.90;56.90;;;;;;5119094;27;20137;-74
2022/04/17 12:42:39;;;;;;;8.85;4.30;;;16.00;55.80;;;;;;5140180;27;20051;-75
2022/04/17 12:45:07;;;;;;;8.85;4.05;;;16.00;58.20;;;;;;5123958;27;20071;-74
2022/04/17 12:47:34;;;;;;;8.45;3.78;;;16.00;58.40;;;;;;5141153;27;20051;-77
2022/04/17 12:50:08;;;;;;;8.50;3.70;;;16.00;51.40;;;;;;5140112;27;20511;-73
2022/04/17 12:52:34;;;;;;;6.82;2.63;;;16.00;55.00;;;;;;5137943;27;20055;-74
2022/04/17 12:55:12;;;;;;;7.03;3.22;;;16.10;54.50;;;;;;5139318;27;20085;-75
2022/04/17 12:57:39;;;;;;;8.27;3.90;;;16.30;52.80;;;;;;5141365;27;20111;-75
2022/04/17 13:00:17;;;;;;;8.93;3.88;;;16.20;51.10;;;;;;5121089;27;20050;-76
2022/04/17 13:02:43;;;;;;;10.30;4.55;;;16.20;51.40;;;;;;5123069;27;20100;-75
2022/04/17 13:05:21;;;;;;;5.88;2.70;;;16.30;55.40;;;;;;5126970;27;20127;-73
2022/04/17 13:07:46;;;;;;;7.97;3.50;;;16.50;51.40;;;;;;5123747;27;20150;-75